sensor_id;sensor_type;location;lat;lon;timestamp;temperature;humidity
12817;DHT22;6473;51.552;6.716;2023-04-24T00:01:36;10.60;99.90
12817;DHT22;6473;51.552;6.716;2023-04-24T00:04:06;10.60;99.90
12817;DHT22;6473;51.552;6.716;2023-04-24T00:06:36;10.70;99.90
12817;DHT22;6473;51.552;6.716;2023-04-24T00:09:03;12.10;99.90
12817;DHT22;6473;51.552;6.716;2023-04-24T00:11:30;10.70;99.90
12817;DHT22;6473;51.552;6.716;2023-04-24T00:13:57;10.60;99.90
12817;DHT22;6473;51.552;6.716;2023-04-24T00:18:51;10.60;99.90
12817;DHT22;6473;51.552;6.716;2023-04-24T00:21:20;10.60;99.90
12817;DHT22;6473;51.552;6.716;2023-04-24T00:23:47;10.50;99.90
12817;DHT22;6473;51.552;6.716;2023-04-24T00:28:41;10.50;99.90
12817;DHT22;6473;51.552;6.716;2023-04-24T00:33:35;10.50;99.90
12817;DHT22;6473;51.552;6.716;2023-04-24T00:36:02;10.40;99.90
12817;DHT22;6473;51.552;6.716;2023-04-24T00:38:30;10.40;99.90
12817;DHT22;6473;51.552;6.716;2023-04-24T00:40:57;10.30;99.90
12817;DHT22;6473;51.552;6.716;2023-04-24T00:43:24;10.30;99.90
12817;DHT22;6473;51.552;6.716;2023-04-24T00:45:53;10.30;99.90
12817;DHT22;6473;51.552;6.716;2023-04-24T00:48:20;10.30;99.90
12817;DHT22;6473;51.552;6.716;2023-04-24T00:50:47;10.20;99.90
12817;DHT22;6473;51.552;6.716;2023-04-24T00:53:14;11.10;99.90
12817;DHT22;6473;51.552;6.716;2023-04-24T00:55:42;10.10;99.90
12817;DHT22;6473;51.552;6.716;2023-04-24T00:58:10;10.10;99.90
12817;DHT22;6473;51.552;6.716;2023-04-24T01:00:37;10.10;99.90
12817;DHT22;6473;51.552;6.716;2023-04-24T01:03:04;10.00;99.90
12817;DHT22;6473;51.552;6.716;2023-04-24T01:05:32;10.00;99.90
12817;DHT22;6473;51.552;6.716;2023-04-24T01:07:59;10.00;99.90
12817;DHT22;6473;51.552;6.716;2023-04-24T01:10:29;9.70;99.90
12817;DHT22;6473;51.552;6.716;2023-04-24T01:12:59;9.90;99.90
12817;DHT22;6473;51.552;6.716;2023-04-24T01:22:49;9.90;99.90
12817;DHT22;6473;51.552;6.716;2023-04-24T01:25:16;9.80;99.90
12817;DHT22;6473;51.552;6.716;2023-04-24T01:27:43;9.80;99.90
12817;DHT22;6473;51.552;6.716;2023-04-24T01:30:12;9.80;99.90
12817;DHT22;6473;51.552;6.716;2023-04-24T01:35:07;9.80;99.90
12817;DHT22;6473;51.552;6.716;2023-04-24T01:37:34;9.70;99.90
12817;DHT22;6473;51.552;6.716;2023-04-24T01:40:05;9.70;99.90
12817;DHT22;6473;51.552;6.716;2023-04-24T01:42:32;9.70;99.90
12817;DHT22;6473;51.552;6.716;2023-04-24T01:45:03;9.70;99.90
12817;DHT22;6473;51.552;6.716;2023-04-24T01:47:31;9.70;99.90
12817;DHT22;6473;51.552;6.716;2023-04-24T01:52:25;9.70;99.90
12817;DHT22;6473;51.552;6.716;2023-04-24T01:57:23;9.60;99.90
12817;DHT22;6473;51.552;6.716;2023-04-24T01:59:50;9.60;99.90
12817;DHT22;6473;51.552;6.716;2023-04-24T02:04:46;9.60;99.90
12817;DHT22;6473;51.552;6.716;2023-04-24T02:09:40;9.60;99.90
12817;DHT22;6473;51.552;6.716;2023-04-24T02:12:08;9.60;99.90
12817;DHT22;6473;51.552;6.716;2023-04-24T02:14:36;9.60;99.90
12817;DHT22;6473;51.552;6.716;2023-04-24T02:19:32;9.60;99.90
12817;DHT22;6473;51.552;6.716;2023-04-24T02:21:58;9.60;99.90
12817;DHT22;6473;51.552;6.716;2023-04-24T02:26:53;9.50;99.90
12817;DHT22;6473;51.552;6.716;2023-04-24T02:29:21;9.50;99.90
12817;DHT22;6473;51.552;6.716;2023-04-24T02:31:50;9.50;99.90
12817;DHT22;6473;51.552;6.716;2023-04-24T02:34:17;9.60;99.90
12817;DHT22;6473;51.552;6.716;2023-04-24T02:44:08;9.40;99.90
12817;DHT22;6473;51.552;6.716;2023-04-24T02:49:04;9.40;99.90
12817;DHT22;6473;51.552;6.716;2023-04-24T02:51:30;9.40;99.90
12817;DHT22;6473;51.552;6.716;2023-04-24T02:53:57;9.40;99.90
12817;DHT22;6473;51.552;6.716;2023-04-24T02:56:24;9.40;99.90
12817;DHT22;6473;51.552;6.716;2023-04-24T02:58:52;9.40;99.90
12817;DHT22;6473;51.552;6.716;2023-04-24T03:03:45;9.40;99.90
12817;DHT22;6473;51.552;6.716;2023-04-24T03:06:14;9.40;99.90
12817;DHT22;6473;51.552;6.716;2023-04-24T03:13:37;9.40;99.90
12817;DHT22;6473;51.552;6.716;2023-04-24T03:16:04;9.40;99.90
12817;DHT22;6473;51.552;6.716;2023-04-24T03:18:31;9.40;99.90
12817;DHT22;6473;51.552;6.716;2023-04-24T03:20:58;9.40;99.90
12817;DHT22;6473;51.552;6.716;2023-04-24T03:23:27;9.40;99.90
12817;DHT22;6473;51.552;6.716;2023-04-24T03:30:54;9.30;99.90
12817;DHT22;6473;51.552;6.716;2023-04-24T03:33:27;9.40;99.90
12817;DHT22;6473;51.552;6.716;2023-04-24T03:36:13;9.30;99.90
12817;DHT22;6473;51.552;6.716;2023-04-24T03:38:42;9.40;99.90
12817;DHT22;6473;51.552;6.716;2023-04-24T03:41:20;9.40;99.90
12817;DHT22;6473;51.552;6.716;2023-04-24T03:43:51;9.40;99.90
12817;DHT22;6473;51.552;6.716;2023-04-24T03:46:18;9.40;99.90
12817;DHT22;6473;51.552;6.716;2023-04-24T03:48:51;9.30;99.90
12817;DHT22;6473;51.552;6.716;2023-04-24T03:53:53;9.40;99.90
12817;DHT22;6473;51.552;6.716;2023-04-24T03:56:22;9.40;99.90
12817;DHT22;6473;51.552;6.716;2023-04-24T03:58:49;9.40;99.90
12817;DHT22;6473;51.552;6.716;2023-04-24T04:01:16;9.40;99.90
12817;DHT22;6473;51.552;6.716;2023-04-24T04:03:53;9.40;99.90
12817;DHT22;6473;51.552;6.716;2023-04-24T04:08:54;9.40;99.90
12817;DHT22;6473;51.552;6.716;2023-04-24T04:11:21;9.30;99.90
12817;DHT22;6473;51.552;6.716;2023-04-24T04:18:47;9.40;99.90
12817;DHT22;6473;51.552;6.716;2023-04-24T04:21:15;9.40;99.90
12817;DHT22;6473;51.552;6.716;2023-04-24T04:23:42;9.40;99.90
12817;DHT22;6473;51.552;6.716;2023-04-24T04:26:25;9.40;99.90
12817;DHT22;6473;51.552;6.716;2023-04-24T04:31:38;9.40;99.90
12817;DHT22;6473;51.552;6.716;2023-04-24T04:34:09;9.40;99.90
12817;DHT22;6473;51.552;6.716;2023-04-24T04:42:00;9.40;99.90
12817;DHT22;6473;51.552;6.716;2023-04-24T04:44:34;9.40;99.90
12817;DHT22;6473;51.552;6.716;2023-04-24T04:47:21;9.30;99.90
12817;DHT22;6473;51.552;6.716;2023-04-24T04:52:21;9.30;99.90
12817;DHT22;6473;51.552;6.716;2023-04-24T04:57:28;9.30;99.90
12817;DHT22;6473;51.552;6.716;2023-04-24T05:05:04;9.30;99.90
12817;DHT22;6473;51.552;6.716;2023-04-24T05:07:31;9.30;99.90
12817;DHT22;6473;51.552;6.716;2023-04-24T05:09:58;9.30;99.90
12817;DHT22;6473;51.552;6.716;2023-04-24T05:12:25;9.30;99.90
12817;DHT22;6473;51.552;6.716;2023-04-24T05:14:54;9.30;99.90
12817;DHT22;6473;51.552;6.716;2023-04-24T05:19:50;9.30;99.90
12817;DHT22;6473;51.552;6.716;2023-04-24T05:22:17;9.30;99.90
12817;DHT22;6473;51.552;6.716;2023-04-24T05:24:51;9.20;99.90
12817;DHT22;6473;51.552;6.716;2023-04-24T05:27:32;9.20;99.90
12817;DHT22;6473;51.552;6.716;2023-04-24T05:30:03;9.20;99.90
12817;DHT22;6473;51.552;6.716;2023-04-24T05:32:30;9.20;99.90
12817;DHT22;6473;51.552;6.716;2023-04-24T05:34:57;9.20;99.90
12817;DHT22;6473;51.552;6.716;2023-04-24T05:37:25;9.10;99.90
12817;DHT22;6473;51.552;6.716;2023-04-24T05:39:52;9.10;99.90
12817;DHT22;6473;51.552;6.716;2023-04-24T05:44:46;9.10;99.90
12817;DHT22;6473;51.552;6.716;2023-04-24T05:47:15;9.10;99.90
12817;DHT22;6473;51.552;6.716;2023-04-24T05:49:42;9.00;99.90
12817;DHT22;6473;51.552;6.716;2023-04-24T05:52:09;9.00;99.90
12817;DHT22;6473;51.552;6.716;2023-04-24T05:54:38;9.00;99.90
12817;DHT22;6473;51.552;6.716;2023-04-24T05:57:05;8.90;99.90
12817;DHT22;6473;51.552;6.716;2023-04-24T05:59:47;8.80;99.90
12817;DHT22;6473;51.552;6.716;2023-04-24T06:02:16;8.80;99.90
12817;DHT22;6473;51.552;6.716;2023-04-24T06:04:44;8.70;99.90
12817;DHT22;6473;51.552;6.716;2023-04-24T06:07:11;8.60;99.90
12817;DHT22;6473;51.552;6.716;2023-04-24T06:09:39;8.50;99.90
12817;DHT22;6473;51.552;6.716;2023-04-24T06:12:06;8.40;99.90
12817;DHT22;6473;51.552;6.716;2023-04-24T06:17:20;8.40;99.90
12817;DHT22;6473;51.552;6.716;2023-04-24T06:19:47;8.40;99.90
12817;DHT22;6473;51.552;6.716;2023-04-24T06:22:15;8.40;99.90
12817;DHT22;6473;51.552;6.716;2023-04-24T06:24:41;8.40;99.90
12817;DHT22;6473;51.552;6.716;2023-04-24T06:29:36;8.40;99.90
12817;DHT22;6473;51.552;6.716;2023-04-24T06:32:03;8.50;99.90
12817;DHT22;6473;51.552;6.716;2023-04-24T06:34:33;8.40;99.90
12817;DHT22;6473;51.552;6.716;2023-04-24T06:37:01;8.40;99.90
12817;DHT22;6473;51.552;6.716;2023-04-24T06:39:28;8.40;99.90
12817;DHT22;6473;51.552;6.716;2023-04-24T06:41:54;8.40;99.90
12817;DHT22;6473;51.552;6.716;2023-04-24T06:44:23;8.40;99.90
12817;DHT22;6473;51.552;6.716;2023-04-24T06:46:50;8.40;99.90
12817;DHT22;6473;51.552;6.716;2023-04-24T06:49:17;8.40;99.90
12817;DHT22;6473;51.552;6.716;2023-04-24T06:51:46;8.40;99.90
12817;DHT22;6473;51.552;6.716;2023-04-24T06:54:13;8.40;99.90
12817;DHT22;6473;51.552;6.716;2023-04-24T06:56:40;8.50;99.90
12817;DHT22;6473;51.552;6.716;2023-04-24T06:59:07;8.50;99.90
12817;DHT22;6473;51.552;6.716;2023-04-24T07:01:33;8.50;99.90
12817;DHT22;6473;51.552;6.716;2023-04-24T07:04:00;8.40;99.90
12817;DHT22;6473;51.552;6.716;2023-04-24T07:06:27;8.40;99.90
12817;DHT22;6473;51.552;6.716;2023-04-24T07:08:59;8.30;99.90
12817;DHT22;6473;51.552;6.716;2023-04-24T07:11:25;8.40;99.90
12817;DHT22;6473;51.552;6.716;2023-04-24T07:13:54;8.30;99.90
12817;DHT22;6473;51.552;6.716;2023-04-24T07:16:21;8.30;99.90
12817;DHT22;6473;51.552;6.716;2023-04-24T07:18:48;8.30;99.90
12817;DHT22;6473;51.552;6.716;2023-04-24T07:21:15;8.40;99.90
12817;DHT22;6473;51.552;6.716;2023-04-24T07:23:42;8.50;99.90
12817;DHT22;6473;51.552;6.716;2023-04-24T07:26:10;8.60;99.90
12817;DHT22;6473;51.552;6.716;2023-04-24T07:28:37;8.60;99.90
12817;DHT22;6473;51.552;6.716;2023-04-24T07:31:04;8.50;99.90
12817;DHT22;6473;51.552;6.716;2023-04-24T07:33:30;8.50;99.90
12817;DHT22;6473;51.552;6.716;2023-04-24T07:35:58;8.40;99.90
12817;DHT22;6473;51.552;6.716;2023-04-24T07:38:25;8.40;99.90
12817;DHT22;6473;51.552;6.716;2023-04-24T07:40:52;8.40;99.90
12817;DHT22;6473;51.552;6.716;2023-04-24T07:43:20;8.40;99.90
12817;DHT22;6473;51.552;6.716;2023-04-24T07:45:47;8.30;99.90
12817;DHT22;6473;51.552;6.716;2023-04-24T07:48:14;8.20;99.90
12817;DHT22;6473;51.552;6.716;2023-04-24T07:50:42;8.20;99.90
12817;DHT22;6473;51.552;6.716;2023-04-24T07:53:08;8.20;99.90
12817;DHT22;6473;51.552;6.716;2023-04-24T07:55:35;8.10;99.90
12817;DHT22;6473;51.552;6.716;2023-04-24T07:58:02;8.10;99.90
12817;DHT22;6473;51.552;6.716;2023-04-24T08:00:30;8.10;99.90
12817;DHT22;6473;51.552;6.716;2023-04-24T08:05:24;8.10;99.90
12817;DHT22;6473;51.552;6.716;2023-04-24T08:10:20;8.10;99.90
12817;DHT22;6473;51.552;6.716;2023-04-24T08:12:47;8.10;99.90
12817;DHT22;6473;51.552;6.716;2023-04-24T08:15:14;8.10;99.90
12817;DHT22;6473;51.552;6.716;2023-04-24T08:17:42;8.10;99.90
12817;DHT22;6473;51.552;6.716;2023-04-24T08:20:11;8.10;99.90
12817;DHT22;6473;51.552;6.716;2023-04-24T08:22:39;8.10;99.90
12817;DHT22;6473;51.552;6.716;2023-04-24T08:25:06;8.20;99.90
12817;DHT22;6473;51.552;6.716;2023-04-24T08:27:34;8.20;99.90
12817;DHT22;6473;51.552;6.716;2023-04-24T08:30:03;8.30;99.90
12817;DHT22;6473;51.552;6.716;2023-04-24T08:34:59;8.50;99.90
12817;DHT22;6473;51.552;6.716;2023-04-24T08:37:27;8.50;99.90
12817;DHT22;6473;51.552;6.716;2023-04-24T08:42:21;8.80;99.90
12817;DHT22;6473;51.552;6.716;2023-04-24T08:44:49;8.90;99.90
12817;DHT22;6473;51.552;6.716;2023-04-24T08:47:16;9.00;99.90
12817;DHT22;6473;51.552;6.716;2023-04-24T08:49:43;9.10;99.90
12817;DHT22;6473;51.552;6.716;2023-04-24T08:52:12;9.20;99.90
12817;DHT22;6473;51.552;6.716;2023-04-24T08:54:41;9.30;99.90
12817;DHT22;6473;51.552;6.716;2023-04-24T08:57:09;9.10;99.90
12817;DHT22;6473;51.552;6.716;2023-04-24T08:59:38;9.10;99.90
12817;DHT22;6473;51.552;6.716;2023-04-24T09:02:05;9.20;99.90
12817;DHT22;6473;51.552;6.716;2023-04-24T09:04:33;9.00;99.90
12817;DHT22;6473;51.552;6.716;2023-04-24T09:07:02;9.00;99.90
12817;DHT22;6473;51.552;6.716;2023-04-24T09:09:32;8.90;99.90
12817;DHT22;6473;51.552;6.716;2023-04-24T09:12:00;8.80;99.90
12817;DHT22;6473;51.552;6.716;2023-04-24T09:14:28;9.40;99.90
12817;DHT22;6473;51.552;6.716;2023-04-24T09:19:24;8.80;99.90
12817;DHT22;6473;51.552;6.716;2023-04-24T09:21:53;8.80;99.90
12817;DHT22;6473;51.552;6.716;2023-04-24T09:24:21;8.70;99.90
12817;DHT22;6473;51.552;6.716;2023-04-24T09:26:56;8.80;99.90
12817;DHT22;6473;51.552;6.716;2023-04-24T09:29:24;8.70;99.90
12817;DHT22;6473;51.552;6.716;2023-04-24T09:31:51;8.60;99.90
12817;DHT22;6473;51.552;6.716;2023-04-24T09:34:21;8.60;99.90
12817;DHT22;6473;51.552;6.716;2023-04-24T09:36:49;8.60;99.90
12817;DHT22;6473;51.552;6.716;2023-04-24T09:39:16;8.50;99.90
12817;DHT22;6473;51.552;6.716;2023-04-24T09:41:46;8.60;99.90
12817;DHT22;6473;51.552;6.716;2023-04-24T09:44:15;8.40;99.90
12817;DHT22;6473;51.552;6.716;2023-04-24T09:46:44;8.50;99.90
12817;DHT22;6473;51.552;6.716;2023-04-24T09:49:13;8.50;99.90
12817;DHT22;6473;51.552;6.716;2023-04-24T09:51:40;8.50;99.90
12817;DHT22;6473;51.552;6.716;2023-04-24T09:54:14;8.50;99.90
12817;DHT22;6473;51.552;6.716;2023-04-24T09:56:43;8.50;99.90
12817;DHT22;6473;51.552;6.716;2023-04-24T09:59:11;8.50;99.90
12817;DHT22;6473;51.552;6.716;2023-04-24T10:01:40;8.60;99.90
12817;DHT22;6473;51.552;6.716;2023-04-24T10:04:18;8.60;99.90
12817;DHT22;6473;51.552;6.716;2023-04-24T10:06:46;8.60;99.90
12817;DHT22;6473;51.552;6.716;2023-04-24T10:09:14;8.50;99.90
12817;DHT22;6473;51.552;6.716;2023-04-24T10:11:42;8.50;99.90
12817;DHT22;6473;51.552;6.716;2023-04-24T10:14:12;8.50;99.90
12817;DHT22;6473;51.552;6.716;2023-04-24T10:16:40;8.60;99.90
12817;DHT22;6473;51.552;6.716;2023-04-24T10:19:07;8.70;99.90
12817;DHT22;6473;51.552;6.716;2023-04-24T10:21:35;8.60;99.90
12817;DHT22;6473;51.552;6.716;2023-04-24T10:24:03;8.70;99.90
12817;DHT22;6473;51.552;6.716;2023-04-24T10:26:33;8.60;99.90
12817;DHT22;6473;51.552;6.716;2023-04-24T10:29:01;8.70;99.90
12817;DHT22;6473;51.552;6.716;2023-04-24T10:31:31;8.70;99.90
12817;DHT22;6473;51.552;6.716;2023-04-24T10:34:00;8.80;99.90
12817;DHT22;6473;51.552;6.716;2023-04-24T10:36:28;11.60;99.90
12817;DHT22;6473;51.552;6.716;2023-04-24T10:39:00;8.80;99.90
12817;DHT22;6473;51.552;6.716;2023-04-24T10:41:27;8.80;99.90
12817;DHT22;6473;51.552;6.716;2023-04-24T10:44:06;8.80;99.90
12817;DHT22;6473;51.552;6.716;2023-04-24T10:46:33;10.60;99.90
12817;DHT22;6473;51.552;6.716;2023-04-24T10:49:03;8.90;99.90
12817;DHT22;6473;51.552;6.716;2023-04-24T10:51:46;9.00;99.90
12817;DHT22;6473;51.552;6.716;2023-04-24T10:54:34;9.30;99.90
12817;DHT22;6473;51.552;6.716;2023-04-24T10:57:25;9.40;99.90
12817;DHT22;6473;51.552;6.716;2023-04-24T11:02:52;10.50;99.90
12817;DHT22;6473;51.552;6.716;2023-04-24T11:05:22;10.70;99.90
12817;DHT22;6473;51.552;6.716;2023-04-24T11:08:12;10.70;99.90
12817;DHT22;6473;51.552;6.716;2023-04-24T11:10:43;10.60;99.90
12817;DHT22;6473;51.552;6.716;2023-04-24T11:13:14;10.50;99.90
12817;DHT22;6473;51.552;6.716;2023-04-24T11:18:13;10.30;99.90
12817;DHT22;6473;51.552;6.716;2023-04-24T11:20:43;10.60;99.90
12817;DHT22;6473;51.552;6.716;2023-04-24T11:23:12;10.30;99.90
12817;DHT22;6473;51.552;6.716;2023-04-24T11:28:07;9.90;99.90
12817;DHT22;6473;51.552;6.716;2023-04-24T11:30:33;9.80;99.90
12817;DHT22;6473;51.552;6.716;2023-04-24T11:33:04;9.80;99.90
12817;DHT22;6473;51.552;6.716;2023-04-24T11:35:35;9.70;99.90
12817;DHT22;6473;51.552;6.716;2023-04-24T11:38:05;9.80;99.90
12817;DHT22;6473;51.552;6.716;2023-04-24T11:40:33;9.80;99.90
12817;DHT22;6473;51.552;6.716;2023-04-24T11:43:00;9.90;99.90
12817;DHT22;6473;51.552;6.716;2023-04-24T11:45:28;10.00;99.90
12817;DHT22;6473;51.552;6.716;2023-04-24T11:47:54;10.00;99.90
12817;DHT22;6473;51.552;6.716;2023-04-24T11:50:22;10.00;99.90
12817;DHT22;6473;51.552;6.716;2023-04-24T11:52:51;10.10;99.90
12817;DHT22;6473;51.552;6.716;2023-04-24T11:55:27;10.00;99.90
12817;DHT22;6473;51.552;6.716;2023-04-24T11:57:56;10.00;99.90
12817;DHT22;6473;51.552;6.716;2023-04-24T12:00:25;10.00;99.90
12817;DHT22;6473;51.552;6.716;2023-04-24T12:03:04;9.90;99.90
12817;DHT22;6473;51.552;6.716;2023-04-24T12:05:38;9.80;99.90
12817;DHT22;6473;51.552;6.716;2023-04-24T12:08:06;9.70;99.90
12817;DHT22;6473;51.552;6.716;2023-04-24T12:10:34;9.70;99.90
12817;DHT22;6473;51.552;6.716;2023-04-24T12:13:01;9.80;99.90
12817;DHT22;6473;51.552;6.716;2023-04-24T12:15:29;9.60;99.90
12817;DHT22;6473;51.552;6.716;2023-04-24T12:17:56;9.60;99.90
12817;DHT22;6473;51.552;6.716;2023-04-24T12:20:26;9.60;99.90
12817;DHT22;6473;51.552;6.716;2023-04-24T12:22:54;9.70;99.90
12817;DHT22;6473;51.552;6.716;2023-04-24T12:25:22;9.90;99.90
12817;DHT22;6473;51.552;6.716;2023-04-24T12:28:09;9.90;99.90
12817;DHT22;6473;51.552;6.716;2023-04-24T12:30:40;9.90;99.90
12817;DHT22;6473;51.552;6.716;2023-04-24T12:33:17;10.00;99.90
12817;DHT22;6473;51.552;6.716;2023-04-24T12:35:44;10.00;99.90
12817;DHT22;6473;51.552;6.716;2023-04-24T12:38:12;10.10;99.90
12817;DHT22;6473;51.552;6.716;2023-04-24T12:40:39;10.30;99.90
12817;DHT22;6473;51.552;6.716;2023-04-24T12:43:15;10.40;99.90
12817;DHT22;6473;51.552;6.716;2023-04-24T12:45:42;10.60;99.90
12817;DHT22;6473;51.552;6.716;2023-04-24T12:48:11;10.70;99.90
12817;DHT22;6473;51.552;6.716;2023-04-24T12:50:39;10.70;99.90
12817;DHT22;6473;51.552;6.716;2023-04-24T12:53:07;10.80;99.90
12817;DHT22;6473;51.552;6.716;2023-04-24T12:55:34;10.50;99.90
12817;DHT22;6473;51.552;6.716;2023-04-24T12:58:01;10.60;99.90
12817;DHT22;6473;51.552;6.716;2023-04-24T13:00:29;12.00;99.90
12817;DHT22;6473;51.552;6.716;2023-04-24T13:02:56;10.60;99.90
12817;DHT22;6473;51.552;6.716;2023-04-24T13:05:23;10.40;99.90
12817;DHT22;6473;51.552;6.716;2023-04-24T13:07:50;10.20;99.90
12817;DHT22;6473;51.552;6.716;2023-04-24T13:10:17;10.30;99.90
12817;DHT22;6473;51.552;6.716;2023-04-24T13:15:12;10.20;99.90
12817;DHT22;6473;51.552;6.716;2023-04-24T13:17:40;10.20;99.90
12817;DHT22;6473;51.552;6.716;2023-04-24T13:20:07;10.10;99.90
12817;DHT22;6473;51.552;6.716;2023-04-24T13:22:35;10.20;99.90
12817;DHT22;6473;51.552;6.716;2023-04-24T13:25:03;10.20;99.90
12817;DHT22;6473;51.552;6.716;2023-04-24T13:27:31;10.30;99.90
12817;DHT22;6473;51.552;6.716;2023-04-24T13:29:58;10.20;99.90
12817;DHT22;6473;51.552;6.716;2023-04-24T13:32:25;10.30;99.90
12817;DHT22;6473;51.552;6.716;2023-04-24T13:34:53;10.50;99.90
12817;DHT22;6473;51.552;6.716;2023-04-24T13:37:20;10.50;99.90
12817;DHT22;6473;51.552;6.716;2023-04-24T13:39:47;11.00;99.90
12817;DHT22;6473;51.552;6.716;2023-04-24T13:42:14;11.10;99.90
12817;DHT22;6473;51.552;6.716;2023-04-24T13:44:41;12.00;99.90
12817;DHT22;6473;51.552;6.716;2023-04-24T13:47:08;11.60;99.90
12817;DHT22;6473;51.552;6.716;2023-04-24T13:49:35;11.40;99.90
12817;DHT22;6473;51.552;6.716;2023-04-24T13:52:03;11.30;99.90
12817;DHT22;6473;51.552;6.716;2023-04-24T13:54:30;11.40;99.90
12817;DHT22;6473;51.552;6.716;2023-04-24T13:56:58;11.20;99.90
12817;DHT22;6473;51.552;6.716;2023-04-24T13:59:25;10.90;99.90
12817;DHT22;6473;51.552;6.716;2023-04-24T14:01:52;10.90;99.90
12817;DHT22;6473;51.552;6.716;2023-04-24T14:04:20;10.40;99.90
12817;DHT22;6473;51.552;6.716;2023-04-24T14:06:46;10.20;99.90
12817;DHT22;6473;51.552;6.716;2023-04-24T14:09:15;10.20;99.90
12817;DHT22;6473;51.552;6.716;2023-04-24T14:11:41;10.10;99.90
12817;DHT22;6473;51.552;6.716;2023-04-24T14:14:08;10.10;99.90
12817;DHT22;6473;51.552;6.716;2023-04-24T14:16:35;10.10;99.90
12817;DHT22;6473;51.552;6.716;2023-04-24T14:19:02;9.90;99.90
12817;DHT22;6473;51.552;6.716;2023-04-24T14:21:30;9.70;99.90
12817;DHT22;6473;51.552;6.716;2023-04-24T14:23:57;9.70;99.90
12817;DHT22;6473;51.552;6.716;2023-04-24T14:26:25;9.60;99.90
12817;DHT22;6473;51.552;6.716;2023-04-24T14:28:52;9.60;99.90
12817;DHT22;6473;51.552;6.716;2023-04-24T14:31:20;9.60;99.90
12817;DHT22;6473;51.552;6.716;2023-04-24T14:33:47;9.60;99.90
12817;DHT22;6473;51.552;6.716;2023-04-24T14:36:14;9.70;99.90
12817;DHT22;6473;51.552;6.716;2023-04-24T14:38:41;9.80;99.90
12817;DHT22;6473;51.552;6.716;2023-04-24T14:41:08;9.80;99.90
12817;DHT22;6473;51.552;6.716;2023-04-24T14:43:38;9.80;99.90
12817;DHT22;6473;51.552;6.716;2023-04-24T14:46:05;10.00;99.90
12817;DHT22;6473;51.552;6.716;2023-04-24T14:48:32;10.20;99.90
12817;DHT22;6473;51.552;6.716;2023-04-24T14:53:26;10.60;99.90
12817;DHT22;6473;51.552;6.716;2023-04-24T14:55:53;11.00;99.90
12817;DHT22;6473;51.552;6.716;2023-04-24T15:00:48;11.10;99.90
12817;DHT22;6473;51.552;6.716;2023-04-24T15:03:18;11.00;99.90
12817;DHT22;6473;51.552;6.716;2023-04-24T15:05:45;10.90;99.90
12817;DHT22;6473;51.552;6.716;2023-04-24T15:08:14;10.80;99.90
12817;DHT22;6473;51.552;6.716;2023-04-24T15:13:08;10.90;99.90
12817;DHT22;6473;51.552;6.716;2023-04-24T15:15:34;10.90;99.90
12817;DHT22;6473;51.552;6.716;2023-04-24T15:18:04;10.70;99.90
12817;DHT22;6473;51.552;6.716;2023-04-24T15:20:31;10.70;99.90
12817;DHT22;6473;51.552;6.716;2023-04-24T15:22:57;10.90;99.90
12817;DHT22;6473;51.552;6.716;2023-04-24T15:25:25;11.00;99.90
12817;DHT22;6473;51.552;6.716;2023-04-24T15:27:52;10.80;99.90
12817;DHT22;6473;51.552;6.716;2023-04-24T15:30:19;10.90;99.90
12817;DHT22;6473;51.552;6.716;2023-04-24T15:32:45;10.90;99.90
12817;DHT22;6473;51.552;6.716;2023-04-24T15:35:13;11.50;99.90
12817;DHT22;6473;51.552;6.716;2023-04-24T15:37:41;10.90;99.90
12817;DHT22;6473;51.552;6.716;2023-04-24T15:40:09;11.00;99.90
12817;DHT22;6473;51.552;6.716;2023-04-24T15:42:38;11.20;99.90
12817;DHT22;6473;51.552;6.716;2023-04-24T15:45:06;11.30;99.90
12817;DHT22;6473;51.552;6.716;2023-04-24T15:47:33;11.40;99.90
12817;DHT22;6473;51.552;6.716;2023-04-24T15:50:00;11.20;99.90
12817;DHT22;6473;51.552;6.716;2023-04-24T15:52:33;12.50;99.90
12817;DHT22;6473;51.552;6.716;2023-04-24T15:55:00;11.90;99.90
12817;DHT22;6473;51.552;6.716;2023-04-24T15:57:27;11.40;99.90
12817;DHT22;6473;51.552;6.716;2023-04-24T15:59:54;11.40;99.90
12817;DHT22;6473;51.552;6.716;2023-04-24T16:02:21;11.00;99.90
12817;DHT22;6473;51.552;6.716;2023-04-24T16:04:49;10.80;99.90
12817;DHT22;6473;51.552;6.716;2023-04-24T16:07:16;10.80;99.90
12817;DHT22;6473;51.552;6.716;2023-04-24T16:09:45;10.80;99.90
12817;DHT22;6473;51.552;6.716;2023-04-24T16:12:12;13.00;99.90
12817;DHT22;6473;51.552;6.716;2023-04-24T16:14:39;10.50;99.90
12817;DHT22;6473;51.552;6.716;2023-04-24T16:17:06;10.60;99.90
12817;DHT22;6473;51.552;6.716;2023-04-24T16:19:34;10.50;99.90
12817;DHT22;6473;51.552;6.716;2023-04-24T16:22:03;10.30;99.90
12817;DHT22;6473;51.552;6.716;2023-04-24T16:24:30;11.20;99.90
12817;DHT22;6473;51.552;6.716;2023-04-24T16:26:58;10.20;99.90
12817;DHT22;6473;51.552;6.716;2023-04-24T16:29:25;10.10;99.90
12817;DHT22;6473;51.552;6.716;2023-04-24T16:31:53;10.00;99.90
12817;DHT22;6473;51.552;6.716;2023-04-24T16:34:20;9.60;99.90
12817;DHT22;6473;51.552;6.716;2023-04-24T16:36:47;9.40;99.90
12817;DHT22;6473;51.552;6.716;2023-04-24T16:39:14;9.20;99.90
12817;DHT22;6473;51.552;6.716;2023-04-24T16:41:41;9.10;99.90
12817;DHT22;6473;51.552;6.716;2023-04-24T16:44:09;9.00;99.90
12817;DHT22;6473;51.552;6.716;2023-04-24T16:46:38;8.90;99.90
12817;DHT22;6473;51.552;6.716;2023-04-24T16:49:05;8.90;99.90
12817;DHT22;6473;51.552;6.716;2023-04-24T16:51:32;8.90;99.90
12817;DHT22;6473;51.552;6.716;2023-04-24T16:53:59;9.00;99.90
12817;DHT22;6473;51.552;6.716;2023-04-24T16:56:26;9.00;99.90
12817;DHT22;6473;51.552;6.716;2023-04-24T17:01:22;9.20;99.90
12817;DHT22;6473;51.552;6.716;2023-04-24T17:03:49;9.20;99.90
12817;DHT22;6473;51.552;6.716;2023-04-24T17:06:16;9.10;99.90
12817;DHT22;6473;51.552;6.716;2023-04-24T17:08:45;9.20;99.90
12817;DHT22;6473;51.552;6.716;2023-04-24T17:13:39;9.20;99.90
12817;DHT22;6473;51.552;6.716;2023-04-24T17:16:06;9.30;99.90
12817;DHT22;6473;51.552;6.716;2023-04-24T17:18:34;9.30;99.90
12817;DHT22;6473;51.552;6.716;2023-04-24T17:21:01;9.40;99.90
12817;DHT22;6473;51.552;6.716;2023-04-24T17:23:28;9.40;99.90
12817;DHT22;6473;51.552;6.716;2023-04-24T17:25:55;9.50;99.90
12817;DHT22;6473;51.552;6.716;2023-04-24T17:28:24;9.50;99.90
12817;DHT22;6473;51.552;6.716;2023-04-24T17:30:52;9.50;99.90
12817;DHT22;6473;51.552;6.716;2023-04-24T17:33:23;9.40;99.90
12817;DHT22;6473;51.552;6.716;2023-04-24T17:35:52;9.50;99.90
12817;DHT22;6473;51.552;6.716;2023-04-24T17:38:19;10.90;99.90
12817;DHT22;6473;51.552;6.716;2023-04-24T17:40:45;12.20;99.90
12817;DHT22;6473;51.552;6.716;2023-04-24T17:43:12;9.40;99.90
12817;DHT22;6473;51.552;6.716;2023-04-24T17:45:43;12.70;99.90
12817;DHT22;6473;51.552;6.716;2023-04-24T17:48:10;9.20;99.90
12817;DHT22;6473;51.552;6.716;2023-04-24T17:50:37;9.20;99.90
12817;DHT22;6473;51.552;6.716;2023-04-24T17:53:06;9.20;99.90
12817;DHT22;6473;51.552;6.716;2023-04-24T17:55:33;9.20;99.90
12817;DHT22;6473;51.552;6.716;2023-04-24T17:58:00;9.10;99.90
12817;DHT22;6473;51.552;6.716;2023-04-24T18:00:27;9.00;99.90
12817;DHT22;6473;51.552;6.716;2023-04-24T18:02:54;8.90;99.90
12817;DHT22;6473;51.552;6.716;2023-04-24T18:05:25;8.80;99.90
12817;DHT22;6473;51.552;6.716;2023-04-24T18:07:53;8.80;99.90
12817;DHT22;6473;51.552;6.716;2023-04-24T18:10:22;8.80;99.90
12817;DHT22;6473;51.552;6.716;2023-04-24T18:12:49;8.80;99.90